Time;durP1;ratioP1;P1;durP2;ratioP2;P2;SDS_P1;SDS_P2;PMS_P1;PMS_P2;Temp;Humidity;BMP_temperature;BMP_pressure;BME280_temperature;BME280_humidity;BME280_pressure;Samples;Min_cycle;Max_cycle;Signal;HPM_P1;HPM_P2
2022/12/03 00:01:26;;;;;;;29.27;11.70;;;;;;;-145.69;100.00;52769.19;5092790;28;20202;-80
2022/12/03 00:03:53;;;;;;;26.80;10.37;;;;;;;-145.69;100.00;52757.31;5092794;28;20229;-81
2022/12/03 00:06:20;;;;;;;24.80;10.63;;;;;;;-145.69;100.00;52725.63;5094206;28;20236;-81
2022/12/03 00:08:46;;;;;;;26.57;9.43;;;;;;;-145.69;100.00;52753.34;5096402;28;20665;-80
2022/12/03 00:11:13;;;;;;;27.83;11.03;;;;;;;-145.69;100.00;52763.25;5090338;28;20222;-82
2022/12/03 00:13:39;;;;;;;25.27;10.10;;;;;;;-145.69;100.00;52745.41;5096448;28;20203;-81
2022/12/03 00:16:07;;;;;;;30.03;10.87;;;;;;;-145.69;100.00;52749.38;5096495;28;20202;-80
2022/12/03 00:18:35;;;;;;;30.17;11.23;;;;;;;-145.69;100.00;52749.38;5096327;28;20209;-81
2022/12/03 00:21:01;;;;;;;29.73;11.07;;;;;;;-145.69;100.00;52731.56;5096319;28;20198;-80
2022/12/03 00:23:28;;;;;;;26.30;10.30;;;;;;;-145.69;100.00;52771.16;5096109;28;20198;-80
2022/12/03 00:25:54;;;;;;;28.60;11.33;;;;;;;-145.69;100.00;52743.44;5096294;28;20222;-80
2022/12/03 00:28:21;;;;;;;28.17;11.27;;;;;;;-145.69;100.00;52719.66;5096194;28;20224;-80
2022/12/03 00:30:47;;;;;;;28.23;11.10;;;;;;;-145.69;100.00;52761.25;5096096;28;20298;-81
2022/12/03 00:33:15;;;;;;;24.90;11.07;;;;;;;-145.69;100.00;52753.34;5096112;28;20667;-81
2022/12/03 00:35:42;;;;;;;30.57;10.57;;;;;;;-145.69;100.00;52759.28;5095681;28;20241;-81
2022/12/03 00:38:08;;;;;;;31.50;11.90;;;;;;;-145.69;100.00;52789.00;5095815;28;20656;-80
2022/12/03 00:40:35;;;;;;;30.33;11.43;;;;;;;-145.69;100.00;52741.47;5096044;28;20530;-81
2022/12/03 00:43:01;;;;;;;28.70;10.80;;;;;;;-145.69;100.00;52775.13;5095387;28;20202;-80
2022/12/03 00:45:27;;;;;;;27.50;11.40;;;;;;;-145.69;100.00;52767.19;5095711;28;20222;-80
2022/12/03 00:47:54;;;;;;;32.10;12.03;;;;;;;-145.69;100.00;52789.00;5095717;28;20602;-80
2022/12/03 00:50:22;;;;;;;35.37;12.03;;;;;;;-145.69;100.00;52777.09;5094387;28;20649;-81
2022/12/03 00:52:48;;;;;;;29.13;10.53;;;;;;;-145.69;100.00;52775.13;5094968;28;20728;-80
2022/12/03 00:55:15;;;;;;;27.50;10.93;;;;;;;-145.69;100.00;52761.25;5095805;28;20246;-81
2022/12/03 00:57:42;;;;;;;31.17;12.07;;;;;;;-145.69;100.00;52745.41;5095451;28;20202;-81
2022/12/03 01:00:11;;;;;;;41.83;14.63;;;;;;;-145.69;100.00;52749.38;5095602;28;20202;-81
2022/12/03 01:02:38;;;;;;;45.47;14.90;;;;;;;-145.69;100.00;52771.16;5095388;28;20676;-81
2022/12/03 01:05:05;;;;;;;43.53;15.23;;;;;;;-145.69;100.00;52727.59;5095352;28;20268;-81
2022/12/03 01:07:33;;;;;;;39.93;15.90;;;;;;;-145.69;100.00;52765.22;5095692;28;20204;-81
2022/12/03 01:10:00;;;;;;;43.67;15.37;;;;;;;-145.69;100.00;52733.53;5094730;28;20549;-80
2022/12/03 01:12:26;;;;;;;38.60;15.20;;;;;;;-145.69;100.00;52763.25;5094935;28;20209;-81
2022/12/03 01:14:53;;;;;;;37.03;13.17;;;;;;;-145.69;100.00;52745.41;5095029;28;20198;-81
2022/12/03 01:17:19;;;;;;;33.83;13.47;;;;;;;-145.69;100.00;52709.78;5094880;28;20817;-81
2022/12/03 01:19:46;;;;;;;35.07;13.43;;;;;;;-145.69;100.00;52773.16;5094762;28;20199;-81
2022/12/03 01:22:12;;;;;;;34.53;13.30;;;;;;;-145.69;100.00;52725.63;5094780;28;20194;-81
2022/12/03 01:24:40;;;;;;;34.90;13.43;;;;;;;-145.69;100.00;52785.03;5095025;28;20204;-81
2022/12/03 01:27:07;;;;;;;34.33;13.03;;;;;;;-145.69;100.00;52767.19;5095075;28;20226;-81
2022/12/03 01:29:33;;;;;;;44.43;14.37;;;;;;;-145.69;100.00;52771.16;5094786;28;20198;-81
2022/12/03 01:32:18;;;;;;;38.67;14.00;;;;;;;-145.69;100.00;52747.41;5094921;28;20199;-81
2022/12/03 01:34:45;;;;;;;33.67;13.97;;;;;;;-145.69;100.00;52787.00;5095123;28;20258;-80
2022/12/03 01:37:12;;;;;;;39.63;14.30;;;;;;;-145.69;100.00;52757.31;5094772;28;20641;-80
2022/12/03 01:39:39;;;;;;;34.13;13.77;;;;;;;-145.69;100.00;52757.31;5094221;28;20221;-81
2022/12/03 01:42:08;;;;;;;37.03;14.30;;;;;;;-145.69;100.00;52792.94;5094734;28;20198;-81
2022/12/03 01:44:36;;;;;;;32.07;13.37;;;;;;;-145.69;100.00;52751.34;5094348;28;20194;-81
2022/12/03 01:47:07;;;;;;;36.10;14.27;;;;;;;-145.69;100.00;52737.50;5094606;28;20233;-81
2022/12/03 01:49:40;;;;;;;37.17;14.13;;;;;;;-145.69;100.00;52765.22;5094791;28;20194;-81
2022/12/03 01:52:11;;;;;;;32.90;12.93;;;;;;;-145.69;100.00;52757.31;5094602;28;20649;-81
2022/12/03 01:54:41;;;;;;;36.73;13.27;;;;;;;-145.69;100.00;52717.69;5094501;28;20206;-80
2022/12/03 01:57:18;;;;;;;32.97;14.43;;;;;;;-145.69;100.00;52775.13;5094462;28;20202;-81
2022/12/03 01:59:45;;;;;;;37.53;13.70;;;;;;;-145.69;100.00;52755.31;5094712;28;20213;-81
2022/12/03 02:02:12;;;;;;;32.90;12.67;;;;;;;-145.69;100.00;52725.63;5094226;28;20679;-81
2022/12/03 02:04:39;;;;;;;36.40;12.73;;;;;;;-145.69;100.00;52751.34;5094388;28;20201;-81
2022/12/03 02:07:17;;;;;;;35.97;13.97;;;;;;;-145.69;100.00;52753.34;5094224;28;20221;-80
2022/12/03 02:09:45;;;;;;;36.20;13.30;;;;;;;-145.69;100.00;52741.47;5093514;28;20198;-81
2022/12/03 02:12:12;;;;;;;40.20;14.30;;;;;;;-145.69;100.00;52777.09;5094148;28;20608;-81
2022/12/03 02:14:39;;;;;;;36.60;14.03;;;;;;;-145.69;100.00;52737.50;5090213;28;20206;-81
2022/12/03 02:17:05;;;;;;;35.57;14.33;;;;;;;-145.69;100.00;52755.31;5073931;28;20218;-81
2022/12/03 02:19:33;;;;;;;33.60;12.93;;;;;;;-145.69;100.00;52773.16;5087704;28;20198;-81
2022/12/03 02:22:05;;;;;;;29.83;12.83;;;;;;;-145.69;100.00;52761.25;5094212;28;20206;-81
2022/12/03 02:24:39;;;;;;;35.27;13.00;;;;;;;-145.69;100.00;52737.50;5093955;28;20202;-81
2022/12/03 02:27:07;;;;;;;37.73;13.60;;;;;;;-145.69;100.00;52725.63;5094011;28;20235;-80
2022/12/03 02:29:34;;;;;;;30.90;13.13;;;;;;;-145.69;100.00;52757.31;5093418;28;20198;-81
2022/12/03 02:32:00;;;;;;;31.57;13.10;;;;;;;-145.69;100.00;52761.25;5093857;28;20661;-81
2022/12/03 02:34:35;;;;;;;37.17;14.00;;;;;;;-145.69;100.00;52737.50;5093293;28;20709;-81
2022/12/03 02:37:03;;;;;;;33.77;13.07;;;;;;;-145.69;100.00;52773.16;5073369;28;20206;-81
2022/12/03 02:39:30;;;;;;;34.57;13.33;;;;;;;-145.69;100.00;52753.34;5073481;28;20210;-80
2022/12/03 02:44:42;;;;;;;33.63;12.83;;;;;;;-145.69;100.00;52729.56;5078904;28;20275;-81
2022/12/03 02:47:09;;;;;;;36.43;12.23;;;;;;;-145.69;100.00;52731.56;5093486;28;20225;-81
2022/12/03 02:49:36;;;;;;;32.53;12.40;;;;;;;-145.69;100.00;52769.19;5093692;28;20202;-81
2022/12/03 02:52:02;;;;;;;32.80;12.43;;;;;;;-145.69;100.00;52783.06;5093454;28;20194;-80
2022/12/03 02:54:29;;;;;;;34.20;13.37;;;;;;;-145.69;100.00;52739.47;5093382;28;20675;-81
2022/12/03 02:56:55;;;;;;;31.50;12.47;;;;;;;-145.69;100.00;52769.19;5093503;28;20671;-81
2022/12/03 02:59:22;;;;;;;31.40;12.87;;;;;;;-145.69;100.00;52757.31;5093386;28;20209;-81
2022/12/03 03:01:50;;;;;;;33.97;13.67;;;;;;;-145.69;100.00;52757.31;5093166;28;20201;-81
2022/12/03 03:04:17;;;;;;;35.73;13.00;;;;;;;-145.69;100.00;52765.22;5093418;28;20285;-81
2022/12/03 03:06:43;;;;;;;31.70;11.97;;;;;;;-145.69;100.00;52745.41;5093386;28;20226;-81
2022/12/03 03:09:10;;;;;;;31.33;12.87;;;;;;;-145.69;100.00;52733.53;5093427;28;20202;-81
2022/12/03 03:11:36;;;;;;;28.57;12.17;;;;;;;-145.69;100.00;52723.63;5093183;28;20192;-81
2022/12/03 03:14:03;;;;;;;35.80;12.97;;;;;;;-145.69;100.00;52769.19;5092855;28;20280;-81
2022/12/03 03:16:30;;;;;;;36.03;14.20;;;;;;;-145.69;100.00;52769.19;5093281;28;20198;-81
2022/12/03 03:18:58;;;;;;;34.37;13.70;;;;;;;-145.69;100.00;52765.22;5094077;28;20197;-81
2022/12/03 03:21:24;;;;;;;31.93;13.37;;;;;;;-145.69;100.00;52759.28;5093750;28;20191;-81
2022/12/03 03:23:50;;;;;;;38.30;15.90;;;;;;;-145.69;100.00;52759.28;5092829;28;20451;-81
2022/12/03 03:26:17;;;;;;;34.10;14.80;;;;;;;-145.69;100.00;52743.44;5092759;28;20238;-80
2022/12/03 03:28:48;;;;;;;30.03;12.73;;;;;;;-145.69;100.00;52759.28;5093007;28;20204;-80
2022/12/03 03:31:18;;;;;;;32.63;13.27;;;;;;;-145.69;100.00;52773.16;5093096;28;20206;-80
2022/12/03 03:33:47;;;;;;;32.70;12.73;;;;;;;-145.69;100.00;52771.16;5092542;28;20285;-80
2022/12/03 03:36:15;;;;;;;32.93;11.97;;;;;;;-145.69;100.00;52763.25;5093124;28;20208;-80
2022/12/03 03:38:42;;;;;;;32.87;12.53;;;;;;;-145.69;100.00;52739.47;5092977;28;20202;-81
2022/12/03 03:41:10;;;;;;;29.30;12.60;;;;;;;-145.69;100.00;52767.19;5094346;28;20205;-81
2022/12/03 03:43:38;;;;;;;28.93;12.53;;;;;;;-145.69;100.00;52759.28;5097072;28;20194;-81
2022/12/03 03:46:07;;;;;;;30.77;12.37;;;;;;;-145.69;100.00;52737.50;5097005;28;20194;-81
2022/12/03 03:48:35;;;;;;;35.10;12.63;;;;;;;-145.69;100.00;52747.41;5097125;28;20198;-81
2022/12/03 03:51:07;;;;;;;38.77;13.83;;;;;;;-145.69;100.00;52765.22;5096956;28;20213;-81
2022/12/03 03:53:35;;;;;;;33.23;12.73;;;;;;;-145.69;100.00;52753.34;5096880;28;20201;-80
2022/12/03 03:56:02;;;;;;;31.17;12.23;;;;;;;-145.69;100.00;52743.44;5096665;28;20208;-80
2022/12/03 03:58:28;;;;;;;32.13;12.77;;;;;;;-145.69;100.00;52745.41;5096621;28;20676;-81
2022/12/03 04:00:55;;;;;;;33.47;13.63;;;;;;;-145.69;100.00;52741.47;5096801;28;20194;-80
2022/12/03 04:03:21;;;;;;;28.37;11.43;;;;;;;-145.69;100.00;52773.16;5096733;28;20198;-81
2022/12/03 04:05:49;;;;;;;37.23;13.43;;;;;;;-145.69;100.00;52729.56;5096421;28;20190;-80
2022/12/03 04:08:16;;;;;;;33.03;13.23;;;;;;;-145.69;100.00;52765.22;5096363;28;20226;-80
2022/12/03 04:13:28;;;;;;;33.63;12.43;;;;;;;-145.69;100.00;52737.50;5095270;28;20208;-80
2022/12/03 04:15:55;;;;;;;36.93;13.43;;;;;;;-145.69;100.00;52796.91;5096416;28;20194;-81
2022/12/03 04:23:50;;;;;;;43.13;17.48;;;;;;;-145.69;100.00;52769.19;5095688;28;20424;-81
2022/12/03 04:29:01;;;;;;;34.83;13.03;;;;;;;-145.69;100.00;52789.00;5096140;28;20200;-81
2022/12/03 04:37:05;;;;;;;28.10;11.03;;;;;;;-145.69;100.00;52790.97;5046948;28;20713;-79
2022/12/03 04:39:32;;;;;;;28.07;11.40;;;;;;;-145.69;100.00;52789.00;5094592;28;20205;-79
2022/12/03 04:42:00;;;;;;;31.67;11.93;;;;;;;-145.69;100.00;52781.06;5094468;28;20198;-80
2022/12/03 04:44:38;;;;;;;30.80;11.80;;;;;;;-145.69;100.00;52763.25;5094538;28;20194;-80
2022/12/03 04:47:08;;;;;;;29.93;11.27;;;;;;;-145.69;100.00;52804.84;5094677;28;20557;-81
2022/12/03 04:49:36;;;;;;;35.10;12.10;;;;;;;-145.69;100.00;52808.78;5094691;28;20194;-81
2022/12/03 04:52:03;;;;;;;36.57;11.83;;;;;;;-145.69;100.00;52771.16;5094248;28;20648;-81
2022/12/03 04:54:30;;;;;;;35.83;13.07;;;;;;;-145.69;100.00;52759.28;5094740;28;20202;-82
2022/12/03 04:56:56;;;;;;;33.60;12.50;;;;;;;-145.69;100.00;52789.00;5094647;28;20198;-82
2022/12/03 04:59:24;;;;;;;36.97;12.27;;;;;;;-145.69;100.00;52733.53;5094774;28;20216;-83
2022/12/03 05:01:50;;;;;;;34.50;13.80;;;;;;;-145.69;100.00;52777.09;5094256;28;20208;-82
2022/12/03 05:04:17;;;;;;;32.33;12.27;;;;;;;-145.69;100.00;52757.31;5094033;28;20194;-82
2022/12/03 05:06:44;;;;;;;36.60;13.00;;;;;;;-145.69;100.00;52761.25;5094119;28;20710;-81
2022/12/03 05:09:11;;;;;;;34.27;12.87;;;;;;;-145.69;100.00;52757.31;5094244;28;20213;-82
2022/12/03 05:11:38;;;;;;;36.57;13.50;;;;;;;-145.69;100.00;52757.31;5094266;28;20206;-80
2022/12/03 05:14:07;;;;;;;30.30;12.07;;;;;;;-145.69;100.00;52765.22;5094370;28;20195;-80
2022/12/03 05:16:35;;;;;;;30.27;11.70;;;;;;;-145.69;100.00;52733.53;5094097;28;20679;-80
2022/12/03 05:19:02;;;;;;;30.70;11.17;;;;;;;-145.69;100.00;52781.06;5094613;28;20194;-80
2022/12/03 05:21:27;;;;;;;29.60;11.53;;;;;;;-145.69;100.00;52765.22;5093859;28;20198;-80
2022/12/03 05:23:54;;;;;;;24.73;10.93;;;;;;;-145.69;100.00;52765.22;5094094;28;20198;-80
2022/12/03 05:26:21;;;;;;;27.53;10.60;;;;;;;-145.69;100.00;52763.25;5094158;28;20205;-81
2022/12/03 05:28:47;;;;;;;27.60;10.90;;;;;;;-145.69;100.00;52779.09;5094059;28;20675;-82
2022/12/03 05:31:14;;;;;;;28.13;10.67;;;;;;;-145.69;100.00;52773.16;5093820;28;20194;-82
2022/12/03 05:33:53;;;;;;;27.16;10.46;;;;;;;-145.69;100.00;52753.34;4947716;28;15041836;-81
2022/12/03 05:36:20;;;;;;;30.77;11.50;;;;;;;-145.69;100.00;52779.09;5061989;28;20402;-82
2022/12/03 05:38:46;;;;;;;33.03;11.80;;;;;;;-145.69;100.00;52769.19;5095062;28;20209;-82
2022/12/03 05:43:59;;;;;;;26.37;10.00;;;;;;;-145.69;100.00;52789.00;5077090;28;20213;-82
2022/12/03 05:46:25;;;;;;;27.53;11.07;;;;;;;-145.69;100.00;52769.19;5095030;28;20281;-81
2022/12/03 05:48:53;;;;;;;31.30;11.95;;;;;;;-145.69;100.00;52737.50;5094854;28;20445;-82
2022/12/03 05:51:19;;;;;;;29.10;11.50;;;;;;;-145.69;100.00;52771.16;5094692;28;20202;-81
2022/12/03 05:53:46;;;;;;;30.03;11.47;;;;;;;-145.69;100.00;52763.25;5094606;28;20197;-81
2022/12/03 05:56:12;;;;;;;30.80;11.33;;;;;;;-145.69;100.00;52789.00;5094744;28;20285;-81
2022/12/03 05:58:39;;;;;;;29.10;11.43;;;;;;;-145.69;100.00;52796.91;5094674;28;20210;-82
2022/12/03 06:01:06;;;;;;;28.00;11.30;;;;;;;-145.69;100.00;52789.00;5094494;28;20198;-82
2022/12/03 06:03:32;;;;;;;26.93;11.57;;;;;;;-145.69;100.00;52753.34;5093908;28;20202;-82
2022/12/03 06:06:00;;;;;;;29.17;11.20;;;;;;;-145.69;100.00;52761.25;5094359;28;20675;-83
2022/12/03 06:08:27;;;;;;;28.53;12.07;;;;;;;-145.69;100.00;52749.38;5090231;28;20226;-81
2022/12/03 06:10:53;;;;;;;29.57;11.60;;;;;;;-145.69;100.00;52729.56;5090490;28;20204;-81
2022/12/03 06:13:20;;;;;;;27.30;11.87;;;;;;;-145.69;100.00;52779.09;5094107;28;20194;-81
2022/12/03 06:15:46;;;;;;;27.53;11.07;;;;;;;-145.69;100.00;52765.22;5094037;28;20668;-81
2022/12/03 06:18:13;;;;;;;27.63;10.77;;;;;;;-145.69;100.00;52787.00;5094356;28;20197;-82
2022/12/03 06:20:39;;;;;;;29.67;10.63;;;;;;;-145.69;100.00;52777.09;5094051;28;20197;-82
2022/12/03 06:23:07;;;;;;;26.93;10.57;;;;;;;-145.69;100.00;52781.06;5094017;28;20198;-82
2022/12/03 06:25:33;;;;;;;23.83;9.73;;;;;;;-145.69;100.00;52777.09;5093989;28;20675;-82
2022/12/03 06:28:00;;;;;;;25.87;10.90;;;;;;;-145.69;100.00;52773.16;5093845;28;20236;-81
2022/12/03 06:30:26;;;;;;;29.60;10.93;;;;;;;-145.69;100.00;52745.41;5094065;28;20206;-82
2022/12/03 06:32:53;;;;;;;23.00;10.07;;;;;;;-145.69;100.00;52773.16;5093783;28;20205;-82
2022/12/03 06:35:19;;;;;;;24.67;10.30;;;;;;;-145.69;100.00;52783.06;5093630;28;20324;-81
2022/12/03 06:37:46;;;;;;;24.17;9.97;;;;;;;-145.69;100.00;52775.13;5093892;28;20570;-80
2022/12/03 06:40:15;;;;;;;26.80;10.23;;;;;;;-145.69;100.00;52789.00;5093271;28;20194;-81
2022/12/03 06:42:42;;;;;;;24.20;10.10;;;;;;;-145.69;100.00;52806.81;5093431;28;20217;-81
2022/12/03 06:45:09;;;;;;;27.10;11.13;;;;;;;-145.69;100.00;52790.97;5093568;28;20210;-81
2022/12/03 06:47:35;;;;;;;25.03;10.10;;;;;;;-145.69;100.00;52713.72;5093534;28;20222;-82
2022/12/03 06:50:02;;;;;;;25.70;10.37;;;;;;;-145.69;100.00;52745.41;5093902;28;20280;-81
2022/12/03 06:52:28;;;;;;;27.43;10.13;;;;;;;-145.69;100.00;52785.03;5094436;28;20198;-81
2022/12/03 06:54:55;;;;;;;21.97;9.87;;;;;;;-145.69;100.00;52785.03;5094093;28;20289;-81
2022/12/03 06:57:23;;;;;;;27.70;10.83;;;;;;;-145.69;100.00;52767.19;5095053;28;20205;-81
2022/12/03 06:59:49;;;;;;;25.60;10.20;;;;;;;-145.69;100.00;52753.34;5094616;28;20284;-81
2022/12/03 07:02:16;;;;;;;20.70;8.50;;;;;;;-145.69;100.00;52765.22;5096231;28;20205;-81
2022/12/03 07:04:42;;;;;;;24.43;9.93;;;;;;;-145.69;100.00;52792.94;5101398;28;20193;-81
2022/12/03 07:07:09;;;;;;;26.53;9.77;;;;;;;-145.69;100.00;52747.41;5097688;28;20595;-80
2022/12/03 07:09:35;;;;;;;24.60;10.83;;;;;;;-145.69;100.00;52781.06;5093539;28;20190;-80
2022/12/03 07:12:02;;;;;;;25.83;10.40;;;;;;;-145.69;100.00;52763.25;5093832;28;20194;-80
2022/12/03 07:14:30;;;;;;;28.83;10.93;;;;;;;-145.69;100.00;52765.22;5092948;28;20208;-80
2022/12/03 07:16:56;;;;;;;31.07;11.77;;;;;;;-145.69;100.00;52777.09;5092792;28;20699;-80
2022/12/03 07:19:22;;;;;;;25.73;11.13;;;;;;;-145.69;100.00;52753.34;5093206;28;20194;-80
2022/12/03 07:21:49;;;;;;;27.40;10.77;;;;;;;-145.69;100.00;52755.31;5093045;28;20225;-80
2022/12/03 07:24:16;;;;;;;26.03;10.63;;;;;;;-145.69;100.00;52763.25;5092867;28;20560;-80
2022/12/03 07:26:42;;;;;;;27.30;11.23;;;;;;;-145.69;100.00;52737.50;5092808;28;20194;-80
2022/12/03 07:29:09;;;;;;;29.53;11.63;;;;;;;-145.69;100.00;52743.44;5093066;28;20624;-80
2022/12/03 07:31:37;;;;;;;25.50;11.20;;;;;;;-145.69;100.00;52761.25;5093007;28;20194;-80
2022/12/03 07:34:03;;;;;;;30.70;11.73;;;;;;;-145.69;100.00;52743.44;5092839;28;20202;-79
2022/12/03 07:36:30;;;;;;;24.10;10.23;;;;;;;-145.69;100.00;52753.34;5092818;28;20205;-80
2022/12/03 07:38:56;;;;;;;26.33;10.77;;;;;;;-145.69;100.00;52765.22;5093044;28;20209;-80
2022/12/03 07:41:23;;;;;;;26.60;10.80;;;;;;;-145.69;100.00;52745.41;5092478;28;20667;-80
2022/12/03 07:43:49;;;;;;;28.67;11.40;;;;;;;-145.69;100.00;52741.47;5093018;28;20200;-80
2022/12/03 07:46:16;;;;;;;25.23;11.83;;;;;;;-145.69;100.00;52763.25;5092664;28;20645;-80
2022/12/03 07:48:44;;;;;;;25.83;10.73;;;;;;;-145.69;100.00;52777.09;5092855;28;20253;-79
2022/12/03 07:51:10;;;;;;;24.37;10.67;;;;;;;-145.69;100.00;52739.47;5092672;28;20645;-80
2022/12/03 07:53:37;;;;;;;28.37;11.90;;;;;;;-145.69;100.00;52787.00;5092699;28;20206;-79
2022/12/03 07:56:03;;;;;;;26.17;10.97;;;;;;;-145.69;100.00;52757.31;5092715;28;20195;-80
2022/12/03 07:58:31;;;;;;;27.00;11.10;;;;;;;-145.69;100.00;52745.41;5092672;28;20649;-79
2022/12/03 08:00:57;;;;;;;24.43;10.83;;;;;;;-145.69;100.00;52755.31;5092752;28;20221;-80
2022/12/03 08:03:24;;;;;;;25.73;10.63;;;;;;;-145.69;100.00;52709.78;5092759;28;20220;-80
2022/12/03 08:05:52;;;;;;;22.23;10.03;;;;;;;-145.69;100.00;52769.19;5092479;28;20198;-79
2022/12/03 08:08:18;;;;;;;22.07;10.43;;;;;;;-145.69;100.00;52749.38;5092447;28;20232;-80
2022/12/03 08:10:45;;;;;;;22.73;10.37;;;;;;;-145.69;100.00;52783.06;5089975;28;20198;-80
2022/12/03 08:13:14;;;;;;;26.77;11.10;;;;;;;-145.69;100.00;52757.31;5090928;28;20205;-80
2022/12/03 08:15:41;;;;;;;27.33;10.80;;;;;;;-145.69;100.00;52777.09;5092496;28;20202;-79
2022/12/03 08:18:14;;;;;;;29.03;11.37;;;;;;;-145.69;100.00;52741.47;5092479;28;20203;-80
2022/12/03 08:20:42;;;;;;;24.90;10.47;;;;;;;-145.69;100.00;52757.31;5092350;28;20241;-79
2022/12/03 08:23:13;;;;;;;28.47;12.00;;;;;;;-145.69;100.00;52759.28;5092712;28;20206;-79
2022/12/03 08:25:40;;;;;;;28.03;11.37;;;;;;;-145.69;100.00;52765.22;5092370;28;20204;-79
2022/12/03 08:28:13;;;;;;;26.43;11.13;;;;;;;-145.69;100.00;52769.19;5095278;28;20236;-79
2022/12/03 08:30:40;;;;;;;56.43;20.80;;;;;;;-145.69;100.00;52715.72;5096187;28;20767;-80
2022/12/03 08:33:17;;;;;;;25.87;11.43;;;;;;;-145.69;100.00;52755.31;5096540;28;20198;-80
2022/12/03 08:35:49;;;;;;;53.87;13.27;;;;;;;-145.69;100.00;52767.19;5096707;28;20233;-82
2022/12/03 08:38:20;;;;;;;29.43;12.30;;;;;;;-145.69;100.00;52745.41;5096830;28;20664;-81
2022/12/03 08:40:49;;;;;;;28.20;11.97;;;;;;;-145.69;100.00;52757.31;5095878;28;20190;-80
2022/12/03 08:43:19;;;;;;;27.80;11.90;;;;;;;-145.69;100.00;52717.69;5096505;28;20202;-80
2022/12/03 08:45:48;;;;;;;29.07;10.77;;;;;;;-145.69;100.00;52753.34;5095998;28;20209;-80
2022/12/03 08:48:37;;;;;;;30.03;11.23;;;;;;;-145.69;100.00;52769.19;5095868;28;20240;-80
2022/12/03 08:51:10;;;;;;;26.80;10.90;;;;;;;-145.69;100.00;52775.13;5093613;28;20201;-80
2022/12/03 08:53:44;;;;;;;22.97;9.83;;;;;;;-145.69;100.00;52701.84;5095593;28;20199;-80
2022/12/03 08:56:20;;;;;;;28.87;13.03;;;;;;;-145.69;100.00;52741.47;5095524;28;20197;-80
2022/12/03 08:58:48;;;;;;;24.83;9.90;;;;;;;-145.69;100.00;52735.50;5095662;28;20656;-80
2022/12/03 09:01:27;;;;;;;19.17;9.33;;;;;;;-145.69;100.00;52775.13;5095615;28;20213;-80
2022/12/03 09:03:55;;;;;;;19.73;8.90;;;;;;;-145.69;100.00;52693.94;5095236;28;20186;-80
2022/12/03 09:06:21;;;;;;;19.67;8.60;;;;;;;-145.69;100.00;52695.91;5095230;28;20202;-79
2022/12/03 09:08:49;;;;;;;19.60;8.37;;;;;;;-145.69;100.00;52705.81;5095292;28;20226;-79
2022/12/03 09:11:16;;;;;;;20.93;8.30;;;;;;;-145.69;100.00;52753.34;5095078;28;20190;-80
2022/12/03 09:13:42;;;;;;;17.90;8.17;;;;;;;-145.69;100.00;52745.41;5094347;28;20198;-79
2022/12/03 09:16:09;;;;;;;23.17;8.87;;;;;;;-145.69;100.00;52721.66;5081176;28;20201;-80
2022/12/03 09:18:35;;;;;;;19.37;9.00;;;;;;;-145.69;100.00;52753.34;5095153;28;20194;-81
2022/12/03 09:21:02;;;;;;;18.73;8.87;;;;;;;-145.69;100.00;52711.75;5094657;28;20209;-81
2022/12/03 09:23:28;;;;;;;19.87;8.90;;;;;;;-145.69;100.00;52733.53;5094282;28;20197;-81
2022/12/03 09:25:56;;;;;;;19.80;8.90;;;;;;;-145.69;100.00;52727.59;5095171;28;20675;-80
2022/12/03 09:28:23;;;;;;;18.10;8.47;;;;;;;-145.69;100.00;52733.53;5094605;28;20600;-80
2022/12/03 09:30:49;;;;;;;19.90;8.13;;;;;;;-145.69;100.00;52747.41;5094709;28;20206;-79
2022/12/03 09:33:16;;;;;;;15.77;7.53;;;;;;;-145.69;100.00;52761.25;5094967;28;20205;-79
2022/12/03 09:35:42;;;;;;;14.60;7.00;;;;;;;-145.69;100.00;52735.50;5082117;28;20704;-82
2022/12/03 09:38:09;;;;;;;18.40;7.90;;;;;;;-145.69;100.00;52727.59;5094376;28;20205;-82
2022/12/03 09:40:35;;;;;;;17.23;7.57;;;;;;;-145.69;100.00;52733.53;5095104;28;20201;-82
2022/12/03 09:43:04;;;;;;;18.83;8.33;;;;;;;-145.69;100.00;52733.53;5095890;28;20201;-82
2022/12/03 09:45:30;;;;;;;18.43;7.87;;;;;;;-145.69;100.00;52727.59;5092490;28;20221;-79
2022/12/03 09:47:57;;;;;;;19.93;8.27;;;;;;;-145.69;100.00;52753.34;5086760;28;20232;-81
2022/12/03 09:50:26;;;;;;;17.83;7.83;;;;;;;-145.69;100.00;52773.16;5094869;28;20730;-80
2022/12/03 09:52:54;;;;;;;18.50;8.13;;;;;;;-145.69;100.00;52781.06;5097416;28;20194;-82
2022/12/03 09:55:23;;;;;;;17.57;7.47;;;;;;;-145.69;100.00;52731.56;5096805;28;20250;-81
2022/12/03 09:57:51;;;;;;;18.80;8.17;;;;;;;-145.69;100.00;52721.66;5095458;28;20657;-83
2022/12/03 10:00:22;;;;;;;20.30;10.02;;;;;;;-145.69;100.00;52783.06;5094078;28;20803;-82
2022/12/03 10:02:51;;;;;;;19.10;9.23;;;;;;;-145.69;100.00;52741.47;5094974;28;20243;-82
2022/12/03 10:05:19;;;;;;;18.10;7.93;;;;;;;-145.69;100.00;52721.66;5094748;28;20542;-82
2022/12/03 10:07:46;;;;;;;19.40;8.00;;;;;;;-145.69;100.00;52753.34;5094578;28;20572;-82
2022/12/03 10:10:15;;;;;;;19.97;8.77;;;;;;;-145.69;100.00;52713.72;5094626;28;20209;-82
2022/12/03 10:12:42;;;;;;;18.30;7.70;;;;;;;-145.69;100.00;52725.63;5094202;28;20201;-82
2022/12/03 10:15:12;;;;;;;18.93;8.77;;;;;;;-145.69;100.00;52699.88;5094344;28;20202;-82
2022/12/03 10:17:41;;;;;;;20.93;8.63;;;;;;;-145.69;100.00;52757.31;5094595;28;20205;-82
2022/12/03 10:20:13;;;;;;;19.00;8.53;;;;;;;-145.69;100.00;52725.63;5087377;28;20191;-82
2022/12/03 10:22:39;;;;;;;19.60;7.53;;;;;;;-145.69;100.00;52729.56;5074168;28;20203;-82
2022/12/03 10:25:09;;;;;;;20.47;8.63;;;;;;;-145.69;100.00;52749.38;5074142;28;20286;-82
2022/12/03 10:27:36;;;;;;;16.63;7.63;;;;;;;-145.69;100.00;52741.47;5074048;28;20202;-82
2022/12/03 10:30:06;;;;;;;17.20;7.67;;;;;;;-145.69;100.00;52735.50;5093115;28;20584;-82
2022/12/03 10:32:41;;;;;;;20.67;8.52;;;;;;;-145.69;100.00;52699.88;5094784;28;20490;-82
2022/12/03 10:35:11;;;;;;;18.47;7.73;;;;;;;-145.69;100.00;52709.78;5094350;28;20277;-82
2022/12/03 10:37:56;;;;;;;14.33;6.93;;;;;;;-145.69;100.00;52737.50;5094896;28;20205;-83
2022/12/03 10:40:25;;;;;;;17.90;7.07;;;;;;;-145.69;100.00;52733.53;5094231;28;20210;-84
2022/12/03 10:42:51;;;;;;;14.37;6.83;;;;;;;-145.69;100.00;52745.41;5093910;28;20229;-82
2022/12/03 10:45:20;;;;;;;16.03;7.23;;;;;;;-145.69;100.00;52725.63;5093931;28;20202;-82
2022/12/03 10:48:10;;;;;;;16.57;7.80;;;;;;;-145.69;100.00;52733.53;5093424;28;20221;-82
2022/12/03 10:50:37;;;;;;;19.50;7.80;;;;;;;-145.69;100.00;52761.25;5092882;28;20645;-78
2022/12/03 10:53:04;;;;;;;14.00;6.77;;;;;;;-145.69;100.00;52729.56;5093521;28;20201;-83
2022/12/03 10:55:36;;;;;;;15.57;7.43;;;;;;;-145.69;100.00;52727.59;5093665;28;20210;-82
2022/12/03 10:58:02;;;;;;;16.50;7.60;;;;;;;-145.69;100.00;52705.81;5093496;28;20652;-82
2022/12/03 11:00:29;;;;;;;18.97;8.57;;;;;;;-145.69;100.00;52711.75;5093461;28;20197;-82
2022/12/03 11:02:55;;;;;;;16.40;8.00;;;;;;;-145.69;100.00;52717.69;5092190;28;20195;-82
2022/12/03 11:05:26;;;;;;;17.65;8.93;;;;;;;-145.69;100.00;52727.59;5092500;28;20433;-82
2022/12/03 11:07:53;;;;;;;16.70;7.70;;;;;;;-145.69;100.00;52717.69;5092156;28;20251;-82
2022/12/03 11:10:20;;;;;;;16.77;7.53;;;;;;;-145.69;100.00;52753.34;5093328;28;20209;-83
2022/12/03 11:13:25;;;;;;;16.47;8.03;;;;;;;-145.69;100.00;52686.00;5092627;28;20213;-83
2022/12/03 11:15:52;;;;;;;18.80;8.07;;;;;;;-145.69;100.00;52741.47;5077769;28;20202;-83
2022/12/03 11:18:52;;;;;;;16.83;7.37;;;;;;;-145.69;100.00;52723.63;5093234;28;20202;-84
2022/12/03 11:21:20;;;;;;;14.90;6.90;;;;;;;-145.69;100.00;52707.78;5093410;28;20671;-84
2022/12/03 11:24:22;;;;;;;18.23;8.03;;;;;;;-145.69;100.00;52713.72;5093205;28;20198;-82